West Dover, VT

10:03 AM EST on February 11, 2016 (GMT -0500)
Mt. Snow/Suntec Forest | | Change Station
CLOSE
Current Station
Personal Weather Station
Location: West Dover, VT
Elevation: 1932 ft
Nearby Weather Stations

Elev 1932 ft 42.95 °N, 72.89 °W | Updated 42 seconds ago

Overcast
Overcast
11.9 °F
Feels Like 5 °F
N
4.0
Wind Variable Wind from WNW
Gusts 17.0 mph

Today
High -- | Low -- °F
--% Chance of Precip.
Yesterday
High -- | Low -- °F
Precip. -- in
Pressure 29.78 in
Visibility 9.0 miles
Clouds Mostly Cloudy 3300 ft
Overcast 4600 ft
Windchill 5 °F
Dew Point 9 °F
Humidity 83%
Rainfall 0.00 in
Snow Depth Not available.
6:54 AM 5:16 PM
Waxing Crescent, 12% visible
METAR KDDH 111454Z AUTO 26009G23KT 220V310 9SM BKN033 OVC046 M08/M16 A2974 RMK AO2 SLP083 60000 T10831156 51012
Pressure 29.78 in
Visibility 9.0 miles
Clouds Mostly Cloudy 3300 ft
Overcast 4600 ft
Windchill 5 °F
Dew Point 9 °F
Humidity 83%
Rainfall 0.00 in
Snow Depth Not available.
6:54 AM 5:16 PM
Waxing Crescent, 12% visible
METAR KDDH 111454Z AUTO 26009G23KT 220V310 9SM BKN033 OVC046 M08/M16 A2974 RMK AO2 SLP083 60000 T10831156 51012

10-Day Weather Forecast

Almanac

Astronomy

Feb. 11, 2016 Rise Set
Actual Time
Civil Twilight
Nautical Twilight
Astronomical Twilight
Moon
Length of Visible Light
Length of Day
Tomorrow will be .
, % of the Moon is Illuminated

Today's Extremes

State Highs State Lows

Community

WunderPhotos

Upload Photos

1,892,059 photos uploaded!

WunderBlog® & News

Nearby

Air Quality

  Air Quality AQ Index Pollutant
Not available.

Snow Depth

Station Depth Elevation

Earthquake Activity

City Distance Mag. Time & Date
Minimum magnitude displayed is 2.5.

Coastal Water Temperatures

Place Temperature

Stations

Nearby Weather Stations

Station Location Temp. Windchill Dew Point Humidity Wind Precip. Elev Updated Type
                   

Watches & Warnings

There are currently no watches in effect.